Terminal Aerodrome Forecast
Issued by NWS Portland, OR

Home | Current Version | Previous Version | Text Only | Print | Product List | Glossary On
Versions: 1 2 3 4 5 6 7 8 9 10 11 12 13 14 15 16 17 18 19
000
FTUS46 KPQR 231753 CCA
TAFSLE
TAF COR
KSLE 231753Z 2318/2418 19009KT P6SM -RA SCT025 OVC040
     FM240500 VRB03KT P6SM FEW025 BKN040
     FM241200 VRB03KT 6SM BR FEW008 SCT012 BKN200
     FM241700 36005KT P6SM FEW025 BKN200=

USA.gov is the U.S. government's official web portal to all federal, state and local government web resources and services.